createdAt,value
2017-07-24T00:01:06.363Z,19.2
2017-07-24T00:02:16.899Z,19.22
2017-07-24T00:03:26.869Z,19.19
2017-07-24T00:04:37.140Z,19.19
2017-07-24T00:05:47.408Z,19.11
2017-07-24T00:06:57.057Z,19.09
2017-07-24T00:08:07.604Z,19.08
2017-07-24T00:09:17.883Z,19.11
2017-07-24T00:10:28.170Z,19.01
2017-07-24T00:11:38.461Z,19.08
2017-07-24T00:12:48.738Z,19.07
2017-07-24T00:13:59.259Z,19.05
2017-07-24T00:15:09.536Z,19.07
2017-07-24T00:16:19.813Z,19.07
2017-07-24T00:17:30.094Z,19.04
2017-07-24T00:18:40.360Z,19.04
2017-07-24T00:19:50.889Z,19.08
2017-07-24T00:21:01.174Z,19.07
2017-07-24T00:22:11.442Z,19.08
2017-07-24T00:23:21.734Z,19.08
2017-07-24T00:24:32.009Z,19.05
2017-07-24T00:25:42.554Z,19.17
2017-07-24T00:26:53.074Z,19.16
2017-07-24T00:28:02.748Z,19.19
2017-07-24T00:29:13.032Z,19.05
2017-07-24T00:30:23.311Z,19.05
2017-07-24T00:31:33.535Z,19.07
2017-07-24T00:32:43.833Z,19.01
2017-07-24T00:33:54.110Z,18.96
2017-07-24T00:35:04.452Z,18.92
2017-07-24T00:36:14.444Z,18.96
2017-07-24T00:37:24.961Z,18.96
2017-07-24T00:38:35.229Z,18.82
2017-07-24T00:39:44.896Z,18.88
2017-07-24T00:40:55.186Z,18.88
2017-07-24T00:42:05.480Z,18.85
2017-07-24T00:43:15.692Z,18.91
2017-07-24T00:44:25.659Z,18.88
2017-07-24T00:45:35.947Z,18.88
2017-07-24T00:46:45.920Z,18.86
2017-07-24T00:47:55.889Z,18.82
2017-07-24T00:49:06.125Z,18.76
2017-07-24T00:50:16.092Z,18.71
2017-07-24T00:51:26.381Z,18.74
2017-07-24T00:52:36.670Z,18.7
2017-07-24T00:53:46.326Z,18.51
2017-07-24T00:54:56.870Z,18.52
2017-07-24T00:56:07.139Z,18.37
2017-07-24T00:57:17.416Z,18.31
2017-07-24T00:58:27.686Z,18.37
2017-07-24T00:59:37.967Z,18.37
2017-07-24T01:00:48.185Z,18.24
2017-07-24T01:01:57.853Z,18.21
2017-07-24T01:03:07.805Z,18.11
2017-07-24T01:04:17.792Z,18.09
2017-07-24T01:05:27.756Z,17.97
2017-07-24T01:06:38.347Z,18
2017-07-24T01:07:48.631Z,17.91
2017-07-24T01:08:58.903Z,17.86
2017-07-24T01:10:08.878Z,17.87
2017-07-24T01:11:19.159Z,17.78
2017-07-24T01:12:29.686Z,17.86
2017-07-24T01:13:39.640Z,17.84
2017-07-24T01:14:49.916Z,17.79
2017-07-24T01:16:00.193Z,17.82
2017-07-24T01:17:10.458Z,17.84
2017-07-24T01:18:20.987Z,17.78
2017-07-24T01:19:31.261Z,17.84
2017-07-24T01:20:41.545Z,17.87
2017-07-24T01:21:51.833Z,17.76
2017-07-24T01:23:02.108Z,17.73
2017-07-24T01:24:12.644Z,17.76
2017-07-24T01:25:22.311Z,17.68
2017-07-24T01:26:32.579Z,17.73
2017-07-24T01:27:42.851Z,17.8
2017-07-24T01:28:52.822Z,17.71
2017-07-24T01:30:03.396Z,17.76
2017-07-24T01:31:13.686Z,17.73
2017-07-24T01:32:23.977Z,17.69
2017-07-24T01:33:33.949Z,17.78
2017-07-24T01:34:44.234Z,17.72
2017-07-24T01:35:54.767Z,17.84
2017-07-24T01:37:04.736Z,17.8
2017-07-24T01:38:15.011Z,17.8
2017-07-24T01:39:24.980Z,17.75
2017-07-24T01:40:35.249Z,17.79
2017-07-24T01:41:45.790Z,17.71
2017-07-24T01:42:55.771Z,17.69
2017-07-24T01:44:05.749Z,17.65
2017-07-24T01:45:15.712Z,17.6
2017-07-24T01:46:25.680Z,17.68
2017-07-24T01:47:36.217Z,17.59
2017-07-24T01:48:46.495Z,17.69
2017-07-24T01:49:56.771Z,17.66
2017-07-24T01:51:07.051Z,17.66
2017-07-24T01:52:17.338Z,17.53
2017-07-24T01:53:27.598Z,17.47
2017-07-24T01:54:37.878Z,17.52
2017-07-24T01:55:48.144Z,17.49
2017-07-24T01:56:58.415Z,17.46
2017-07-24T01:58:08.679Z,17.47
2017-07-24T01:59:18.898Z,17.39
2017-07-24T02:00:28.860Z,17.41
2017-07-24T02:01:39.126Z,17.35
2017-07-24T02:02:49.414Z,17.42
2017-07-24T02:03:59.364Z,17.34
2017-07-24T02:05:09.577Z,17.31
2017-07-24T02:06:19.850Z,17.24
2017-07-24T02:07:29.816Z,17.24
2017-07-24T02:08:40.099Z,17.2
2017-07-24T02:09:50.387Z,17.16
2017-07-24T02:11:00.962Z,17.19
2017-07-24T02:12:10.928Z,17.19
2017-07-24T02:13:21.208Z,17.23
2017-07-24T02:14:31.487Z,17.16
2017-07-24T02:15:41.455Z,17.14
2017-07-24T02:16:51.972Z,17.14
2017-07-24T02:18:01.945Z,17.01
2017-07-24T02:19:12.231Z,16.99
2017-07-24T02:20:22.511Z,16.99
2017-07-24T02:21:32.483Z,16.98
2017-07-24T02:22:43.007Z,17.01
2017-07-24T02:23:53.285Z,16.91
2017-07-24T02:25:03.567Z,16.95
2017-07-24T02:26:13.851Z,16.86
2017-07-24T02:27:23.840Z,16.98
2017-07-24T02:28:34.350Z,16.99
2017-07-24T02:29:44.636Z,16.94
2017-07-24T02:30:54.612Z,16.95
2017-07-24T02:32:04.894Z,16.97
2017-07-24T02:33:14.887Z,16.94
2017-07-24T02:34:25.424Z,16.97
2017-07-24T02:35:35.390Z,17.02
2017-07-24T02:36:45.653Z,16.98
2017-07-24T02:37:55.629Z,17.1
2017-07-24T02:39:05.908Z,16.99
2017-07-24T02:40:16.435Z,17.17
2017-07-24T02:41:26.412Z,17.05
2017-07-24T02:42:36.706Z,17.1
2017-07-24T02:43:46.983Z,17.05
2017-07-24T02:44:56.941Z,17.1
2017-07-24T02:46:07.153Z,17.13
2017-07-24T02:47:17.121Z,17.2
2017-07-24T02:48:27.090Z,17.14
2017-07-24T02:49:37.368Z,17.24
2017-07-24T02:50:47.972Z,17.22
2017-07-24T02:51:58.207Z,17.17
2017-07-24T02:53:08.473Z,17.22
2017-07-24T02:54:18.751Z,17.24
2017-07-24T02:55:28.720Z,17.23
2017-07-24T02:56:38.993Z,17.32
2017-07-24T02:57:48.899Z,17.28
2017-07-24T02:58:58.866Z,17.31
2017-07-24T03:00:09.152Z,17.27
2017-07-24T03:01:19.440Z,17.34
2017-07-24T03:02:29.716Z,17.2
2017-07-24T03:03:40.248Z,17.2
2017-07-24T03:04:50.539Z,17.14
2017-07-24T03:06:00.499Z,17.2
2017-07-24T03:07:10.789Z,17.16
2017-07-24T03:08:21.063Z,17.07
2017-07-24T03:09:31.592Z,17.09
2017-07-24T03:10:41.870Z,17.1
2017-07-24T03:11:52.149Z,17.14
2017-07-24T03:13:02.421Z,17.17
2017-07-24T03:14:12.087Z,17.14
2017-07-24T03:15:22.600Z,17.02
2017-07-24T03:16:32.889Z,17.19
2017-07-24T03:17:43.174Z,17.1
2017-07-24T03:18:53.461Z,17.09
2017-07-24T03:20:03.417Z,17.14
2017-07-24T03:21:13.330Z,17.05
2017-07-24T03:22:23.630Z,17.14
2017-07-24T03:23:33.910Z,17.01
2017-07-24T03:24:43.567Z,16.95
2017-07-24T03:25:53.850Z,16.86
2017-07-24T03:27:04.380Z,16.83
2017-07-24T03:28:14.658Z,16.86
2017-07-24T03:29:24.624Z,16.86
2017-07-24T03:30:34.918Z,16.8
2017-07-24T03:31:44.892Z,16.77
2017-07-24T03:32:55.427Z,16.79
2017-07-24T03:34:05.708Z,16.83
2017-07-24T03:35:15.661Z,16.77
2017-07-24T03:36:25.651Z,16.8
2017-07-24T03:37:35.924Z,16.8
2017-07-24T03:38:46.455Z,16.83
2017-07-24T03:39:56.420Z,16.82
2017-07-24T03:41:06.708Z,16.83
2017-07-24T03:42:16.675Z,16.8
2017-07-24T03:43:27.595Z,16.83
2017-07-24T03:44:38.142Z,16.86
2017-07-24T03:45:48.432Z,16.8
2017-07-24T03:46:59.106Z,16.8
2017-07-24T03:48:09.393Z,16.86
2017-07-24T03:49:19.664Z,16.69
2017-07-24T03:50:29.884Z,16.69
2017-07-24T03:51:40.161Z,16.74
2017-07-24T03:52:49.825Z,16.65
2017-07-24T03:53:59.481Z,16.58
2017-07-24T03:55:09.750Z,16.58
2017-07-24T03:56:19.962Z,16.57
2017-07-24T03:57:30.228Z,16.51
2017-07-24T03:58:40.187Z,16.59
2017-07-24T03:59:50.157Z,16.64
2017-07-24T04:01:00.446Z,16.65
2017-07-24T04:02:10.969Z,16.62
2017-07-24T04:03:20.936Z,16.74
2017-07-24T04:04:31.221Z,16.65
2017-07-24T04:05:41.506Z,16.72
2017-07-24T04:06:50.559Z,16.72
2017-07-24T04:08:01.086Z,16.74
2017-07-24T04:09:11.084Z,16.69
2017-07-24T04:10:21.065Z,16.73
2017-07-24T04:11:31.369Z,16.66
2017-07-24T04:12:41.325Z,16.58
2017-07-24T04:13:51.847Z,16.54
2017-07-24T04:15:02.175Z,16.59
2017-07-24T04:16:12.472Z,16.58
2017-07-24T04:17:22.749Z,16.51
2017-07-24T04:18:33.013Z,16.49
2017-07-24T04:19:42.606Z,16.46
2017-07-24T04:20:52.875Z,16.47
2017-07-24T04:22:03.150Z,16.54
2017-07-24T04:23:12.812Z,16.44
2017-07-24T04:24:22.785Z,16.5
2017-07-24T04:25:33.343Z,16.55
2017-07-24T04:26:43.605Z,16.47
2017-07-24T04:27:53.873Z,16.55
2017-07-24T04:29:03.837Z,16.54
2017-07-24T04:30:13.806Z,16.55
2017-07-24T04:31:24.325Z,16.51
2017-07-24T04:32:34.296Z,16.51
2017-07-24T04:33:44.269Z,16.54
2017-07-24T04:34:54.559Z,16.59
2017-07-24T04:36:04.868Z,16.64
2017-07-24T04:37:15.407Z,16.72
2017-07-24T04:38:25.696Z,16.72
2017-07-24T04:39:35.977Z,16.76
2017-07-24T04:40:46.261Z,16.73
2017-07-24T04:41:56.216Z,16.73
2017-07-24T04:43:06.773Z,16.8
2017-07-24T04:44:17.050Z,16.73
2017-07-24T04:45:27.327Z,16.86
2017-07-24T04:46:37.603Z,16.82
2017-07-24T04:47:47.561Z,16.82
2017-07-24T04:48:57.782Z,16.83
2017-07-24T04:50:07.752Z,16.87
2017-07-24T04:51:17.725Z,16.97
2017-07-24T04:52:27.074Z,17.12
2017-07-24T04:53:37.363Z,17.02
2017-07-24T04:54:47.887Z,17.07
2017-07-24T04:55:58.157Z,17.14
2017-07-24T04:57:08.423Z,17.04
2017-07-24T04:58:18.718Z,17.13
2017-07-24T04:59:28.979Z,17.09
2017-07-24T05:00:39.201Z,17.16
2017-07-24T05:01:49.496Z,17.24
2017-07-24T05:02:59.802Z,17.3
2017-07-24T05:04:10.085Z,17.34
2017-07-24T05:05:20.380Z,17.37
2017-07-24T05:06:30.919Z,17.34
2017-07-24T05:07:41.197Z,17.38
2017-07-24T05:08:51.083Z,17.41
2017-07-24T05:10:01.340Z,17.46
2017-07-24T05:11:11.652Z,17.44
2017-07-24T05:12:22.180Z,17.49
2017-07-24T05:13:32.150Z,17.49
2017-07-24T05:14:42.438Z,17.47
2017-07-24T05:15:52.737Z,17.54
2017-07-24T05:17:02.716Z,17.59
2017-07-24T05:18:13.236Z,17.57
2017-07-24T05:19:23.194Z,17.69
2017-07-24T05:20:33.476Z,17.68
2017-07-24T05:21:43.753Z,17.65
2017-07-24T05:22:54.028Z,17.65
2017-07-24T05:24:04.568Z,17.68
2017-07-24T05:25:14.858Z,17.76
2017-07-24T05:26:25.126Z,17.79
2017-07-24T05:27:35.398Z,17.8
2017-07-24T05:28:45.689Z,17.9
2017-07-24T05:29:55.906Z,17.94
2017-07-24T05:31:06.180Z,17.91
2017-07-24T05:32:16.141Z,17.94
2017-07-24T05:33:26.421Z,17.98
2017-07-24T05:34:36.388Z,18.03
2017-07-24T05:35:46.969Z,18.05
2017-07-24T05:36:57.264Z,17.98
2017-07-24T05:38:07.797Z,17.98
2017-07-24T05:39:18.072Z,18.08
2017-07-24T05:40:28.046Z,17.97
2017-07-24T05:41:38.266Z,18.02
2017-07-24T05:42:48.268Z,18.03
2017-07-24T05:43:58.231Z,18.08
2017-07-24T05:45:08.521Z,17.93
2017-07-24T05:46:18.789Z,18.03
2017-07-24T05:47:29.329Z,18
2017-07-24T05:48:39.303Z,18.03
2017-07-24T05:49:49.290Z,18.03
2017-07-24T05:50:59.257Z,17.97
2017-07-24T05:52:08.922Z,18
2017-07-24T05:53:19.525Z,17.98
2017-07-24T05:54:29.802Z,18.11
2017-07-24T05:55:40.085Z,18.09
2017-07-24T05:56:49.747Z,18.09
2017-07-24T05:58:00.027Z,18.08
2017-07-24T05:59:10.550Z,18.12
2017-07-24T06:00:20.523Z,18.13
2017-07-24T06:01:30.813Z,18.12
2017-07-24T06:02:41.095Z,18.15
2017-07-24T06:03:51.368Z,18.23
2017-07-24T06:05:01.584Z,18.24
2017-07-24T06:06:11.552Z,18.39
2017-07-24T06:07:21.825Z,18.36
2017-07-24T06:08:32.122Z,18.3
2017-07-24T06:09:42.097Z,18.36
2017-07-24T06:10:52.630Z,18.48
2017-07-24T06:12:02.926Z,18.57
2017-07-24T06:13:12.903Z,18.58
2017-07-24T06:14:23.184Z,18.78
2017-07-24T06:15:33.163Z,18.76
2017-07-24T06:16:43.397Z,18.78
2017-07-24T06:17:53.691Z,18.82
2017-07-24T06:19:03.969Z,18.83
2017-07-24T06:20:13.949Z,18.96
2017-07-24T06:21:23.908Z,18.96
2017-07-24T06:22:34.148Z,19.07
2017-07-24T06:23:44.439Z,19.17
2017-07-24T06:24:54.724Z,19.12
2017-07-24T06:26:04.406Z,19.29
2017-07-24T06:27:14.076Z,19.32
2017-07-24T06:28:24.615Z,19.49
2017-07-24T06:29:34.893Z,19.55
2017-07-24T06:30:44.902Z,19.52
2017-07-24T06:31:55.175Z,19.7
2017-07-24T06:33:05.467Z,19.81
2017-07-24T06:34:15.689Z,19.87
2017-07-24T06:35:25.673Z,20.11
2017-07-24T06:36:35.971Z,20.15
2017-07-24T06:37:46.258Z,20.19
2017-07-24T06:38:56.532Z,20.11
2017-07-24T06:40:07.222Z,20.11
2017-07-24T06:41:17.200Z,20.07
2017-07-24T06:42:27.473Z,20.08
2017-07-24T06:43:37.437Z,20.1
2017-07-24T06:44:47.108Z,20.15
2017-07-24T06:45:57.642Z,20.21
2017-07-24T06:47:07.928Z,20.26
2017-07-24T06:48:17.277Z,20.29
2017-07-24T06:49:27.252Z,20.36
2017-07-24T06:50:37.570Z,20.44
2017-07-24T06:51:48.092Z,20.56
2017-07-24T06:52:58.073Z,20.44
2017-07-24T06:54:08.361Z,20.52
2017-07-24T06:55:18.669Z,20.5
2017-07-24T06:56:28.951Z,20.52
2017-07-24T06:57:39.529Z,20.6
2017-07-24T06:58:49.839Z,20.67
2017-07-24T06:59:59.808Z,20.63
2017-07-24T07:01:09.764Z,20.56
2017-07-24T07:02:20.046Z,20.55
2017-07-24T07:03:30.569Z,20.29
2017-07-24T07:04:40.860Z,20.27
2017-07-24T07:05:51.152Z,20.26
2017-07-24T07:07:01.450Z,20.26
2017-07-24T07:08:11.426Z,20.24
2017-07-24T07:09:21.364Z,20.33
2017-07-24T07:10:31.651Z,20.32
2017-07-24T07:11:41.942Z,20.53
2017-07-24T07:12:52.203Z,20.53
2017-07-24T07:14:02.192Z,20.55
2017-07-24T07:15:12.720Z,20.46
2017-07-24T07:16:22.688Z,20.58
2017-07-24T07:17:32.984Z,20.59
2017-07-24T07:18:43.268Z,20.7
2017-07-24T07:19:53.245Z,20.68
2017-07-24T07:21:03.481Z,20.68
2017-07-24T07:22:13.803Z,20.63
2017-07-24T07:23:24.096Z,20.68
2017-07-24T07:24:34.063Z,20.74
2017-07-24T07:25:44.042Z,20.6
2017-07-24T07:26:54.257Z,20.67
2017-07-24T07:28:03.608Z,20.68
2017-07-24T07:29:13.896Z,20.75
2017-07-24T07:30:23.869Z,20.64
2017-07-24T07:31:34.151Z,20.67
2017-07-24T07:32:44.693Z,20.7
2017-07-24T07:33:54.998Z,20.89
2017-07-24T07:35:04.662Z,20.86
2017-07-24T07:36:14.981Z,20.93
2017-07-24T07:37:25.267Z,20.88
2017-07-24T07:38:35.823Z,20.85
2017-07-24T07:39:45.800Z,20.85
2017-07-24T07:40:55.779Z,20.85
2017-07-24T07:42:05.458Z,20.92
2017-07-24T07:43:15.714Z,20.93
2017-07-24T07:44:26.259Z,20.92
2017-07-24T07:45:36.538Z,20.96
2017-07-24T07:46:46.824Z,21.08
2017-07-24T07:47:56.805Z,21.04
2017-07-24T07:49:07.083Z,21.01
2017-07-24T07:50:17.303Z,21.04
2017-07-24T07:51:27.307Z,21.17
2017-07-24T07:52:37.586Z,21.23
2017-07-24T07:53:47.572Z,21.33
2017-07-24T07:54:57.856Z,21.3
2017-07-24T07:56:08.386Z,21.32
2017-07-24T07:57:18.679Z,21.2
2017-07-24T07:58:28.964Z,21.32
2017-07-24T07:59:38.632Z,21.28
2017-07-24T08:00:48.907Z,21.29
2017-07-24T08:01:59.136Z,21.28
2017-07-24T08:03:09.413Z,21.28
2017-07-24T08:04:19.709Z,21.35
2017-07-24T08:05:30.010Z,21.44
2017-07-24T08:06:39.990Z,21.43
2017-07-24T08:07:50.536Z,21.43
2017-07-24T08:09:00.523Z,21.43
2017-07-24T08:10:10.496Z,21.4
2017-07-24T08:11:20.489Z,21.41
2017-07-24T08:12:30.786Z,21.56
2017-07-24T08:13:41.330Z,21.53
2017-07-24T08:14:51.615Z,21.62
2017-07-24T08:16:01.914Z,21.62
2017-07-24T08:17:12.226Z,21.7
2017-07-24T08:18:22.523Z,21.74
2017-07-24T08:19:33.091Z,21.62
2017-07-24T08:20:43.064Z,21.62
2017-07-24T08:21:53.347Z,21.66
2017-07-24T08:23:03.643Z,21.7
2017-07-24T08:24:13.632Z,21.89
2017-07-24T08:25:24.174Z,21.96
2017-07-24T08:26:34.489Z,21.99
2017-07-24T08:27:44.793Z,22.14
2017-07-24T08:28:54.814Z,22.15
2017-07-24T08:30:04.802Z,22.06
2017-07-24T08:31:15.035Z,22.03
2017-07-24T08:32:25.302Z,21.97
2017-07-24T08:33:35.291Z,21.81
2017-07-24T08:34:45.579Z,21.91
2017-07-24T08:35:55.559Z,21.92
2017-07-24T08:37:06.118Z,22.01
2017-07-24T08:38:16.091Z,22.06
2017-07-24T08:39:26.379Z,22.1
2017-07-24T08:40:36.356Z,22.06
2017-07-24T08:41:46.662Z,21.97
2017-07-24T08:42:57.213Z,22.1
2017-07-24T08:44:07.487Z,22.31
2017-07-24T08:45:17.775Z,22.55
2017-07-24T08:46:28.083Z,22.86
2017-07-24T08:47:38.619Z,23.21
2017-07-24T08:48:48.842Z,23.29
2017-07-24T08:49:59.125Z,23.29
2017-07-24T08:51:09.415Z,23.51
2017-07-24T08:52:19.691Z,23.66
2017-07-24T08:53:29.982Z,23.59
2017-07-24T08:54:40.550Z,23.76
2017-07-24T08:55:50.220Z,23.71
2017-07-24T08:57:00.520Z,23.82
2017-07-24T08:58:10.813Z,23.74
2017-07-24T08:59:21.121Z,23.73
2017-07-24T09:00:31.695Z,23.59
2017-07-24T09:01:41.996Z,23.54
2017-07-24T09:02:52.399Z,23.44
2017-07-24T09:04:02.393Z,23.44
2017-07-24T09:05:12.684Z,23.49
2017-07-24T09:06:22.918Z,23.62
2017-07-24T09:07:32.896Z,23.74
2017-07-24T09:08:42.892Z,23.66
2017-07-24T09:09:53.194Z,23.82
2017-07-24T09:11:03.502Z,23.86
2017-07-24T09:12:14.043Z,24.04
2017-07-24T09:13:24.375Z,24.19
2017-07-24T09:14:34.370Z,24.36
2017-07-24T09:15:44.361Z,24.31
2017-07-24T09:16:54.663Z,24.4
2017-07-24T09:18:05.221Z,24.58
2017-07-24T09:19:15.529Z,24.51
2017-07-24T09:20:25.810Z,24.36
2017-07-24T09:21:35.499Z,24.53
2017-07-24T09:22:45.472Z,24.79
2017-07-24T09:23:56.066Z,25.3
2017-07-24T09:25:06.371Z,25.67
2017-07-24T09:26:16.664Z,25.48
2017-07-24T09:27:26.660Z,25.36
2017-07-24T09:28:36.976Z,25.39
2017-07-24T09:29:47.226Z,25.37
2017-07-24T09:30:57.557Z,25.3
2017-07-24T09:32:07.878Z,25.34
2017-07-24T09:33:17.891Z,25.41
2017-07-24T09:34:28.178Z,25.22
2017-07-24T09:35:38.736Z,25.39
2017-07-24T09:36:49.006Z,25.44
2017-07-24T09:37:59.343Z,25.34
2017-07-24T09:39:09.649Z,25.11
2017-07-24T09:40:19.956Z,25.03
2017-07-24T09:41:30.543Z,25.03
2017-07-24T09:42:40.546Z,24.88
2017-07-24T09:43:50.553Z,24.84
2017-07-24T09:45:00.884Z,24.68
2017-07-24T09:46:10.585Z,24.66
2017-07-24T09:47:21.168Z,24.84
2017-07-24T09:48:31.472Z,24.81
2017-07-24T09:49:41.456Z,24.74
2017-07-24T09:50:51.747Z,24.69
2017-07-24T09:52:01.718Z,24.47
2017-07-24T09:53:12.274Z,24.4
2017-07-24T09:54:22.256Z,24.25
2017-07-24T09:55:31.922Z,24.31
2017-07-24T09:56:42.207Z,24.36
2017-07-24T09:57:52.515Z,24.18
2017-07-24T09:59:02.773Z,24.24
2017-07-24T10:00:13.075Z,24.32
2017-07-24T10:01:23.359Z,24.22
2017-07-24T10:02:33.034Z,24.28
2017-07-24T10:03:43.019Z,24.29
2017-07-24T10:04:53.557Z,24.29
2017-07-24T10:06:03.847Z,24.5
2017-07-24T10:07:14.171Z,24.82
2017-07-24T10:08:24.489Z,24.88
2017-07-24T10:09:34.163Z,24.93
2017-07-24T10:10:44.700Z,24.86
2017-07-24T10:11:55.225Z,25.01
2017-07-24T10:13:05.529Z,25.22
2017-07-24T10:14:15.213Z,25.59
2017-07-24T10:15:25.508Z,26.04
2017-07-24T10:16:35.735Z,26.48
2017-07-24T10:17:46.022Z,27
2017-07-24T10:18:56.318Z,27.47
2017-07-24T10:20:06.620Z,27.73
2017-07-24T10:21:16.904Z,27.19
2017-07-24T10:22:26.829Z,26.53
2017-07-24T10:23:36.819Z,26.3
2017-07-24T10:24:47.106Z,25.98
2017-07-24T10:25:57.413Z,25.98
2017-07-24T10:27:07.713Z,25.83
2017-07-24T10:28:18.247Z,26.01
2017-07-24T10:29:28.563Z,26.27
2017-07-24T10:30:38.231Z,26.36
2017-07-24T10:31:48.526Z,26.01
2017-07-24T10:32:58.827Z,25.81
2017-07-24T10:34:09.059Z,25.62
2017-07-24T10:35:19.048Z,25.68
2017-07-24T10:36:29.033Z,25.74
2017-07-24T10:37:39.337Z,25.89
2017-07-24T10:38:49.634Z,26.16
2017-07-24T10:40:00.194Z,25.63
2017-07-24T10:41:10.177Z,25.39
2017-07-24T10:42:20.501Z,25.56
2017-07-24T10:43:30.789Z,25.73
2017-07-24T10:44:40.785Z,25.7
2017-07-24T10:45:51.384Z,25.95
2017-07-24T10:47:01.062Z,25.98
2017-07-24T10:48:11.348Z,26.07
2017-07-24T10:49:21.648Z,26.15
2017-07-24T10:50:31.948Z,26.24
2017-07-24T10:51:42.245Z,26.3
2017-07-24T10:52:52.217Z,26.45
2017-07-24T10:54:02.502Z,26.81
2017-07-24T10:55:12.488Z,26.81
2017-07-24T10:56:22.771Z,26.51
2017-07-24T10:57:33.312Z,26.63
2017-07-24T10:58:43.601Z,26.39
2017-07-24T10:59:53.567Z,26.15
2017-07-24T11:01:03.884Z,26.11
2017-07-24T11:02:14.115Z,26.08
2017-07-24T11:03:24.028Z,26.23
2017-07-24T11:04:34.010Z,26.6
2017-07-24T11:05:43.994Z,26.71
2017-07-24T11:06:54.297Z,27
2017-07-24T11:08:04.287Z,27.25
2017-07-24T11:09:14.825Z,27.19
2017-07-24T11:10:25.114Z,26.96
2017-07-24T11:11:35.096Z,26.74
2017-07-24T11:12:45.065Z,26.46
2017-07-24T11:13:55.069Z,26.18
2017-07-24T11:15:05.635Z,26.03
2017-07-24T11:16:15.930Z,26.34
2017-07-24T11:17:25.905Z,26.85
2017-07-24T11:18:35.897Z,27.34
2017-07-24T11:19:46.197Z,27.3
2017-07-24T11:20:56.747Z,27.15
2017-07-24T11:22:07.046Z,27.04
2017-07-24T11:23:17.340Z,27.25
2017-07-24T11:24:27.646Z,27.58
2017-07-24T11:25:37.959Z,27.37
2017-07-24T11:26:48.486Z,27.26
2017-07-24T11:27:58.769Z,26.83
2017-07-24T11:29:09.060Z,26.55
2017-07-24T11:30:18.754Z,26.49
2017-07-24T11:31:28.773Z,26.56
2017-07-24T11:32:39.317Z,26.37
2017-07-24T11:33:49.611Z,26.44
2017-07-24T11:34:59.585Z,26.44
2017-07-24T11:36:09.601Z,26.3
2017-07-24T11:37:19.886Z,26.19
2017-07-24T11:38:30.421Z,25.99
2017-07-24T11:39:40.745Z,25.78
2017-07-24T11:40:50.716Z,25.74
2017-07-24T11:42:00.714Z,25.76
2017-07-24T11:43:10.675Z,25.67
2017-07-24T11:44:21.211Z,25.73
2017-07-24T11:45:31.496Z,25.81
2017-07-24T11:46:41.794Z,25.99
2017-07-24T11:47:52.096Z,26.1
2017-07-24T11:49:01.759Z,26.29
2017-07-24T11:50:11.997Z,26.31
2017-07-24T11:51:22.295Z,26.36
2017-07-24T11:52:32.594Z,26.6
2017-07-24T11:53:42.883Z,26.66
2017-07-24T11:54:53.173Z,26.63
2017-07-24T11:56:03.709Z,26.6
2017-07-24T11:57:14.011Z,26.73
2017-07-24T11:58:24.327Z,26.91
2017-07-24T11:59:34.641Z,26.93
2017-07-24T12:00:44.950Z,26.88
2017-07-24T12:01:55.182Z,26.92
2017-07-24T12:03:05.173Z,27.26
2017-07-24T12:04:15.143Z,27.53
2017-07-24T12:05:25.435Z,27.44
2017-07-24T12:06:35.730Z,27.07
2017-07-24T12:07:46.265Z,26.59
2017-07-24T12:08:56.535Z,26.31
2017-07-24T12:10:06.509Z,25.98
2017-07-24T12:11:16.808Z,25.62
2017-07-24T12:12:27.105Z,25.56
2017-07-24T12:13:37.331Z,25.52
2017-07-24T12:14:47.610Z,25.59
2017-07-24T12:15:57.617Z,25.66
2017-07-24T12:17:07.900Z,25.89
2017-07-24T12:18:17.880Z,26.06
2017-07-24T12:19:28.477Z,26.16
2017-07-24T12:20:38.445Z,26.07
2017-07-24T12:21:48.439Z,25.89
2017-07-24T12:22:58.741Z,25.77
2017-07-24T12:24:09.038Z,25.71
2017-07-24T12:25:19.594Z,25.85
2017-07-24T12:26:29.593Z,25.85
2017-07-24T12:27:39.591Z,25.91
2017-07-24T12:28:49.888Z,26.22
2017-07-24T12:29:59.884Z,26.26
2017-07-24T12:31:10.136Z,26.53
2017-07-24T12:32:20.125Z,26.79
2017-07-24T12:33:29.806Z,26.89
2017-07-24T12:34:40.090Z,26.91
2017-07-24T12:35:50.388Z,26.85
2017-07-24T12:37:00.933Z,26.96
2017-07-24T12:38:11.246Z,27.13
2017-07-24T12:39:21.220Z,27.3
2017-07-24T12:40:31.226Z,27.23
2017-07-24T12:41:41.519Z,27.3
2017-07-24T12:42:51.425Z,27.43
2017-07-24T12:44:01.722Z,27.25
2017-07-24T12:45:12.036Z,27.1
2017-07-24T12:46:22.013Z,27.34
2017-07-24T12:47:32.311Z,27.61
2017-07-24T12:48:42.845Z,27.91
2017-07-24T12:49:53.132Z,28.16
2017-07-24T12:51:03.134Z,28.25
2017-07-24T12:52:12.803Z,28.3
2017-07-24T12:53:22.812Z,28.47
2017-07-24T12:54:33.351Z,28.64
2017-07-24T12:55:43.643Z,28.8
2017-07-24T12:56:53.645Z,29.05
2017-07-24T12:58:03.946Z,28.67
2017-07-24T12:59:13.914Z,28.34
2017-07-24T13:00:24.135Z,28.15
2017-07-24T13:01:34.110Z,28.46
2017-07-24T13:02:44.422Z,28.71
2017-07-24T13:03:54.400Z,28.77
2017-07-24T13:05:04.698Z,28.97
2017-07-24T13:06:15.256Z,28.96
2017-07-24T13:07:25.257Z,28.62
2017-07-24T13:08:35.562Z,28.09
2017-07-24T13:09:45.541Z,27.68
2017-07-24T13:10:55.834Z,27.52
2017-07-24T13:12:06.381Z,27.47
2017-07-24T13:13:16.694Z,27.34
2017-07-24T13:14:26.992Z,27.19
2017-07-24T13:15:37.302Z,26.76
2017-07-24T13:16:47.588Z,26.56
2017-07-24T13:17:57.822Z,26.73
2017-07-24T13:19:08.129Z,27.04
2017-07-24T13:20:18.412Z,27.44
2017-07-24T13:21:28.723Z,27.71
2017-07-24T13:22:38.998Z,27.75
2017-07-24T13:23:49.532Z,27.86
2017-07-24T13:24:59.865Z,28.08
2017-07-24T13:26:09.855Z,28.18
2017-07-24T13:27:20.139Z,28.09
2017-07-24T13:28:30.127Z,27.94
2017-07-24T13:29:40.353Z,27.61
2017-07-24T13:30:50.635Z,27.29
2017-07-24T13:32:00.926Z,26.93
2017-07-24T13:33:11.222Z,26.59
2017-07-24T13:34:21.227Z,26.46
2017-07-24T13:35:31.452Z,26.3
2017-07-24T13:36:41.428Z,26.37
2017-07-24T13:37:51.729Z,26.49
2017-07-24T13:39:02.024Z,26.34
2017-07-24T13:40:12.082Z,26.45
2017-07-24T13:41:22.324Z,26.29
2017-07-24T13:42:32.609Z,26.34
2017-07-24T13:43:42.595Z,26.55
2017-07-24T13:44:52.892Z,26.61
2017-07-24T13:46:03.182Z,26.78
2017-07-24T13:47:13.734Z,27.11
2017-07-24T13:48:24.025Z,27.13
2017-07-24T13:49:34.352Z,27.19
2017-07-24T13:50:44.654Z,27.08
2017-07-24T13:51:54.634Z,26.74
2017-07-24T13:53:04.875Z,26.78
2017-07-24T13:54:14.846Z,26.92
2017-07-24T13:55:25.151Z,27.08
2017-07-24T13:56:35.138Z,26.88
2017-07-24T13:57:45.442Z,27.07
2017-07-24T13:58:55.981Z,27.11
2017-07-24T14:00:05.645Z,26.82
2017-07-24T14:01:15.945Z,26.81
2017-07-24T14:02:26.243Z,26.73
2017-07-24T14:03:36.517Z,26.73
2017-07-24T14:04:47.049Z,26.88
2017-07-24T14:05:57.347Z,27.03
2017-07-24T14:07:07.647Z,26.91
2017-07-24T14:08:17.308Z,26.76
2017-07-24T14:09:26.968Z,26.46
2017-07-24T14:10:37.506Z,26.3
2017-07-24T14:11:47.794Z,26.18
2017-07-24T14:12:58.080Z,26.23
2017-07-24T14:14:08.061Z,26.39
2017-07-24T14:15:18.354Z,26.73
2017-07-24T14:16:27.960Z,27.15
2017-07-24T14:17:37.649Z,27.43
2017-07-24T14:18:47.959Z,27.79
2017-07-24T14:19:58.256Z,27.75
2017-07-24T14:21:08.239Z,27.6
2017-07-24T14:22:18.456Z,27.47
2017-07-24T14:23:28.462Z,27.19
2017-07-24T14:24:38.449Z,27.33
2017-07-24T14:25:48.431Z,27.48
2017-07-24T14:26:58.101Z,27.68
2017-07-24T14:28:08.315Z,27.76
2017-07-24T14:29:18.622Z,27.71
2017-07-24T14:30:28.611Z,27.76
2017-07-24T14:31:38.920Z,27.73
2017-07-24T14:32:49.208Z,27.6
2017-07-24T14:33:59.760Z,27.53
2017-07-24T14:35:09.736Z,27.68
2017-07-24T14:36:19.717Z,27.61
2017-07-24T14:37:30.012Z,27.81
2017-07-24T14:38:39.988Z,27.73
2017-07-24T14:39:50.524Z,27.6
2017-07-24T14:41:00.824Z,27.4
2017-07-24T14:42:11.109Z,27.35
2017-07-24T14:43:21.090Z,27.33
2017-07-24T14:44:31.407Z,27.33
2017-07-24T14:45:41.701Z,27.43
2017-07-24T14:46:51.367Z,27.48
2017-07-24T14:48:01.693Z,27.48
2017-07-24T14:49:12.014Z,27.43
2017-07-24T14:50:22.001Z,27.37
2017-07-24T14:51:32.538Z,27.43
2017-07-24T14:52:42.860Z,27.55
2017-07-24T14:53:53.164Z,27.53
2017-07-24T14:55:03.449Z,27.43
2017-07-24T14:56:13.431Z,27.5
2017-07-24T14:57:23.993Z,27.52
2017-07-24T14:58:34.007Z,27.43
2017-07-24T14:59:44.300Z,27.26
2017-07-24T15:00:54.581Z,27.37
2017-07-24T15:02:04.279Z,27.34
2017-07-24T15:03:14.807Z,27.23
2017-07-24T15:04:25.088Z,27.26
2017-07-24T15:05:35.400Z,27.22
2017-07-24T15:06:45.368Z,26.96
2017-07-24T15:07:55.055Z,27.05